Decoded Metar for LFRD (DINARD in FRANCE) (IATA:DNR) | Meteo·Mobile Aviation Weather
aviador You're here:

LFRD Decoded Metar

DINARD in FRANCE
Report Time2019-10-21 07:30:00
UTC Time2019-10-21 07:36:08
Flight Rules mvfr MVFR
Wind230° at 05 kt
W.Decomp.*RWY 17: 2.3 kt HW 4.4 kt RCW
RWY 30: 1.9 kt HW 4.6 kt LCW
Visibility8000 m
Phenomena:Shower Rain
Clouds:N/A
Ceiling1,500 ft
Temp09°C (ISA -6)
Dew Point09°C (100% RH)
AAT7.0°C
QNH1018 hPa
Density Alt-492 ft
Elevation194 ft
Report Wrong Elevation
Raw Report
METAR LFRD 210730Z AUTO 23005KT 8000 NSC 09/09 Q1018 TEMPO 3000
SHRA BKN015TCU=

Extra information for LFRD:More info

Metar Taf Metar & Taf Last 4 Metars F.Rules Stats Wind Profile Meteogram Temp Stats Airport Information Weather charts Add Link Nearby VenuesMetar ALERT Operation Metar Decoded Social comments